Terminal Aerodrome Forecast
Issued by NWS

Home | Current Version | Previous Version | Text Only | Print | Product List | Glossary On
Versions: 1 2 3 4 5 6 7 8 9 10 11 12 13 14
965
FTUS45 KTFX 202320
TAFHLN
TAF
KHLN 202320Z 2100/2124 VRB05KT P6SM FEW090 SCT180
     FM211000 VRB03KT P6SM VCFG FEW010 SCT070 BKN150
      TEMPO 2113/2117 3SM BR
     FM211900 VRB05KT P6SM SCT040 BKN070=

USA.gov is the U.S. government's official web portal to all federal, state and local government web resources and services.